createdAt,value
2023-05-16T00:01:13.725Z,9.32
2023-05-16T00:03:44.185Z,9.30
2023-05-16T00:06:15.701Z,9.30
2023-05-16T00:08:46.023Z,9.28
2023-05-16T00:11:17.411Z,9.27
2023-05-16T00:13:47.791Z,9.26
2023-05-16T00:16:18.244Z,9.24
2023-05-16T00:18:49.851Z,9.21
2023-05-16T00:21:23.554Z,9.18
2023-05-16T00:24:01.893Z,9.15
2023-05-16T00:26:32.229Z,9.10
2023-05-16T00:29:03.067Z,9.08
2023-05-16T00:31:34.461Z,9.06
2023-05-16T00:34:04.855Z,9.05
2023-05-16T00:36:35.957Z,9.04
2023-05-16T00:39:06.482Z,8.99
2023-05-16T00:41:38.210Z,8.95
2023-05-16T00:44:09.568Z,8.91
2023-05-16T00:46:40.040Z,8.90
2023-05-16T00:49:10.999Z,8.89
2023-05-16T00:51:41.981Z,8.89
2023-05-16T00:54:13.516Z,8.89
2023-05-16T00:56:44.038Z,8.88
2023-05-16T00:59:14.387Z,8.88
2023-05-16T01:01:48.079Z,8.87
2023-05-16T01:04:20.581Z,8.84
2023-05-16T01:06:51.161Z,8.81
2023-05-16T01:09:22.062Z,8.81
2023-05-16T01:11:58.216Z,8.81
2023-05-16T01:14:37.268Z,8.84
2023-05-16T01:17:15.533Z,8.97
2023-05-16T01:20:06.531Z,9.05
2023-05-16T01:22:53.562Z,9.13
2023-05-16T01:25:39.409Z,9.17
2023-05-16T01:28:11.904Z,9.20
2023-05-16T01:30:43.160Z,9.27
2023-05-16T01:33:13.577Z,9.30
2023-05-16T01:35:54.380Z,9.28
2023-05-16T01:38:28.176Z,9.27
2023-05-16T01:41:05.496Z,9.29
2023-05-16T01:43:43.214Z,9.29
2023-05-16T01:46:16.242Z,9.29
2023-05-16T01:48:53.906Z,9.28
2023-05-16T01:51:30.730Z,9.27
2023-05-16T01:54:06.448Z,9.25
2023-05-16T01:56:39.627Z,9.26
2023-05-16T01:59:13.245Z,9.25
2023-05-16T02:01:43.771Z,9.26
2023-05-16T02:04:15.349Z,9.27
2023-05-16T02:06:46.160Z,9.26
2023-05-16T02:09:16.587Z,9.27
2023-05-16T02:11:47.689Z,9.28
2023-05-16T02:14:18.089Z,9.28
2023-05-16T02:16:49.326Z,9.27
2023-05-16T02:19:20.836Z,9.25
2023-05-16T02:21:51.660Z,9.21
2023-05-16T02:24:22.209Z,9.18
2023-05-16T02:26:52.527Z,9.15
2023-05-16T02:29:22.979Z,9.10
2023-05-16T02:31:53.282Z,9.04
2023-05-16T02:34:23.622Z,8.97
2023-05-16T02:36:53.916Z,8.90
2023-05-16T02:39:25.958Z,8.87
2023-05-16T02:41:56.294Z,8.83
2023-05-16T02:44:26.561Z,8.80
2023-05-16T02:46:56.861Z,8.78
2023-05-16T02:49:27.246Z,8.77
2023-05-16T02:51:57.744Z,8.74
2023-05-16T02:54:28.080Z,8.71
2023-05-16T02:56:58.650Z,8.69
2023-05-16T02:59:29.135Z,8.66
2023-05-16T03:01:59.899Z,8.66
2023-05-16T03:04:30.398Z,8.64
2023-05-16T03:07:01.219Z,8.62
2023-05-16T03:09:31.509Z,8.59
2023-05-16T03:12:01.881Z,8.56
2023-05-16T03:14:32.152Z,8.55
2023-05-16T03:17:02.557Z,8.54
2023-05-16T03:19:32.900Z,8.54
2023-05-16T03:22:04.080Z,8.55
2023-05-16T03:24:34.566Z,8.54
2023-05-16T03:27:05.917Z,8.55
2023-05-16T03:29:36.541Z,8.56
2023-05-16T03:32:07.819Z,8.58
2023-05-16T03:34:38.250Z,8.60
2023-05-16T03:37:10.969Z,8.62
2023-05-16T03:39:41.312Z,8.64
2023-05-16T03:42:11.707Z,8.66
2023-05-16T03:44:42.037Z,8.70
2023-05-16T03:47:12.566Z,8.74
2023-05-16T03:49:42.906Z,8.80
2023-05-16T03:52:13.380Z,8.85
2023-05-16T03:54:43.701Z,8.90
2023-05-16T03:57:14.008Z,8.96
2023-05-16T03:59:44.396Z,9.02
2023-05-16T04:02:16.827Z,9.08
2023-05-16T04:04:49.215Z,9.16
2023-05-16T04:07:20.817Z,9.21
2023-05-16T04:09:53.723Z,9.29
2023-05-16T04:12:24.066Z,9.37
2023-05-16T04:14:54.321Z,9.45
2023-05-16T04:17:24.645Z,9.55
2023-05-16T04:19:54.969Z,9.64
2023-05-16T04:22:25.340Z,9.71
2023-05-16T04:24:55.777Z,9.79
2023-05-16T04:27:26.844Z,9.89
2023-05-16T04:29:57.371Z,9.99
2023-05-16T04:32:29.116Z,10.07
2023-05-16T04:35:00.151Z,10.16
2023-05-16T04:37:31.201Z,10.25
2023-05-16T04:40:01.509Z,10.36
2023-05-16T04:42:32.700Z,10.46
2023-05-16T04:45:06.481Z,10.55
2023-05-16T04:47:36.951Z,10.66
2023-05-16T04:50:09.887Z,10.76
2023-05-16T04:52:40.276Z,10.85
2023-05-16T04:55:12.551Z,10.97
2023-05-16T04:57:42.909Z,11.08
2023-05-16T05:00:16.408Z,11.19
2023-05-16T05:02:46.837Z,11.29
2023-05-16T05:05:17.409Z,11.40
2023-05-16T05:07:48.387Z,11.51
2023-05-16T05:10:18.771Z,11.62
2023-05-16T05:12:49.139Z,11.72
2023-05-16T05:15:19.690Z,11.79
2023-05-16T05:17:50.165Z,11.86
2023-05-16T05:20:20.816Z,11.94
2023-05-16T05:22:51.168Z,11.99
2023-05-16T05:25:21.733Z,12.04
2023-05-16T05:27:52.184Z,12.14
2023-05-16T05:30:22.540Z,12.23
2023-05-16T05:32:53.471Z,12.32
2023-05-16T05:35:23.858Z,12.38
2023-05-16T05:37:54.791Z,12.47
2023-05-16T05:40:25.096Z,12.55
2023-05-16T05:42:55.463Z,12.63
2023-05-16T05:45:26.017Z,12.73
2023-05-16T05:47:56.910Z,12.82
2023-05-16T05:50:27.275Z,12.91
2023-05-16T05:52:57.738Z,13.02
2023-05-16T05:55:28.462Z,13.15
2023-05-16T05:57:59.026Z,13.25
2023-05-16T06:00:29.706Z,13.34
2023-05-16T06:03:00.600Z,13.41
2023-05-16T06:05:31.169Z,13.46
2023-05-16T06:08:01.665Z,13.54
2023-05-16T06:10:31.954Z,13.62
2023-05-16T06:13:02.296Z,13.67
2023-05-16T06:15:32.588Z,13.74
2023-05-16T06:18:03.087Z,13.85
2023-05-16T06:20:33.655Z,13.96
2023-05-16T06:23:03.977Z,14.06
2023-05-16T06:25:34.373Z,14.18
2023-05-16T06:28:04.810Z,14.31
2023-05-16T06:30:35.276Z,14.43
2023-05-16T06:33:05.960Z,14.53
2023-05-16T06:35:36.427Z,14.51
2023-05-16T06:38:06.793Z,14.55
2023-05-16T06:40:37.658Z,14.58
2023-05-16T06:43:08.054Z,14.62
2023-05-16T06:45:38.525Z,14.67
2023-05-16T06:48:09.965Z,14.65
2023-05-16T06:50:40.305Z,14.66
2023-05-16T06:53:12.172Z,14.65
2023-05-16T06:55:42.587Z,14.65
2023-05-16T06:58:12.909Z,14.69
2023-05-16T07:00:44.185Z,14.73
2023-05-16T07:03:16.235Z,14.82
2023-05-16T07:05:46.726Z,14.93
2023-05-16T07:08:17.231Z,15.00
2023-05-16T07:10:47.730Z,15.04
2023-05-16T07:13:27.271Z,15.16
2023-05-16T07:15:57.654Z,15.28
2023-05-16T07:18:28.049Z,15.36
2023-05-16T07:20:58.548Z,15.43
2023-05-16T07:23:31.217Z,15.41
2023-05-16T07:26:02.055Z,15.43
2023-05-16T07:28:32.456Z,15.47
2023-05-16T07:31:02.896Z,15.51
2023-05-16T07:33:33.868Z,15.56
2023-05-16T07:36:15.958Z,15.59
2023-05-16T07:38:48.887Z,15.63
2023-05-16T07:41:19.245Z,15.70
2023-05-16T07:43:49.611Z,15.77
2023-05-16T07:46:20.115Z,15.80
2023-05-16T07:48:51.567Z,15.91
2023-05-16T07:51:22.023Z,16.07
2023-05-16T07:53:52.911Z,16.18
2023-05-16T07:56:23.794Z,16.24
2023-05-16T07:58:54.655Z,16.30
2023-05-16T08:01:26.346Z,16.32
2023-05-16T08:03:56.902Z,16.25
2023-05-16T08:06:29.480Z,16.25
2023-05-16T08:08:59.915Z,16.26
2023-05-16T08:11:30.624Z,16.31
2023-05-16T08:14:01.091Z,16.36
2023-05-16T08:16:31.545Z,16.34
2023-05-16T08:19:01.960Z,16.39
2023-05-16T08:21:33.043Z,16.43
2023-05-16T08:24:05.655Z,16.52
2023-05-16T08:26:37.489Z,16.62
2023-05-16T08:29:07.841Z,16.63
2023-05-16T08:31:38.294Z,16.70
2023-05-16T08:34:09.447Z,16.83
2023-05-16T08:36:39.903Z,16.89
2023-05-16T08:39:11.649Z,16.88
2023-05-16T08:41:42.374Z,16.84
2023-05-16T08:44:13.315Z,16.80
2023-05-16T08:46:45.696Z,16.84
2023-05-16T08:49:17.270Z,16.84
2023-05-16T08:51:49.203Z,16.87
2023-05-16T08:54:19.719Z,16.93
2023-05-16T08:56:51.414Z,17.07
2023-05-16T08:59:24.207Z,17.16
2023-05-16T09:01:55.635Z,17.25
2023-05-16T09:04:27.732Z,17.36
2023-05-16T09:06:58.542Z,17.45
2023-05-16T09:09:30.156Z,17.48
2023-05-16T09:12:01.063Z,17.47
2023-05-16T09:14:32.106Z,17.44
2023-05-16T09:17:12.313Z,17.47
2023-05-16T09:19:44.597Z,17.53
2023-05-16T09:22:16.733Z,17.62
2023-05-16T09:24:48.582Z,17.71
2023-05-16T09:27:19.404Z,17.88
2023-05-16T09:29:54.256Z,17.95
2023-05-16T09:32:24.990Z,18.04
2023-05-16T09:34:58.610Z,18.22
2023-05-16T09:37:29.309Z,18.28
2023-05-16T09:39:59.841Z,18.31
2023-05-16T09:42:30.200Z,18.29
2023-05-16T09:45:04.137Z,18.29
2023-05-16T09:47:34.559Z,18.22
2023-05-16T09:50:05.423Z,18.09
2023-05-16T09:52:35.836Z,18.11
2023-05-16T09:55:09.970Z,18.16
2023-05-16T09:57:41.386Z,18.27
2023-05-16T10:00:14.561Z,18.26
2023-05-16T10:02:46.046Z,18.17
2023-05-16T10:05:17.823Z,18.17
2023-05-16T10:07:48.248Z,18.13
2023-05-16T10:10:19.496Z,18.28
2023-05-16T10:12:50.263Z,18.33
2023-05-16T10:15:22.000Z,18.36
2023-05-16T10:17:54.808Z,18.44
2023-05-16T10:20:27.116Z,18.55
2023-05-16T10:22:59.484Z,18.69
2023-05-16T10:25:34.039Z,18.90
2023-05-16T10:28:05.526Z,19.02
2023-05-16T10:30:37.480Z,19.05
2023-05-16T10:33:08.043Z,19.14
2023-05-16T10:35:38.591Z,19.29
2023-05-16T10:38:12.156Z,19.39
2023-05-16T10:40:42.936Z,19.43
2023-05-16T10:43:23.716Z,19.46
2023-05-16T10:45:59.231Z,19.32
2023-05-16T10:48:34.985Z,19.37
2023-05-16T10:51:26.002Z,19.53
2023-05-16T10:54:05.418Z,19.63
2023-05-16T10:56:36.413Z,19.64
2023-05-16T10:59:23.114Z,19.65
2023-05-16T11:01:57.415Z,19.74
2023-05-16T11:04:49.421Z,19.85
2023-05-16T11:07:21.121Z,19.86
2023-05-16T11:10:06.280Z,19.82
2023-05-16T11:12:49.093Z,19.84
2023-05-16T11:15:25.587Z,19.76
2023-05-16T11:18:06.863Z,19.65
2023-05-16T11:20:38.988Z,19.53
2023-05-16T11:23:26.461Z,19.43
2023-05-16T11:26:24.884Z,19.40
2023-05-16T11:28:56.115Z,19.33
2023-05-16T11:31:26.550Z,19.34
2023-05-16T11:33:57.075Z,19.38
2023-05-16T11:36:30.847Z,19.34
2023-05-16T11:39:10.520Z,19.40
2023-05-16T11:41:41.105Z,19.39
2023-05-16T11:44:14.141Z,19.36
2023-05-16T11:46:44.618Z,19.43
2023-05-16T11:49:15.122Z,19.37
2023-05-16T11:51:45.864Z,19.32
2023-05-16T11:54:16.431Z,19.26
2023-05-16T11:56:46.881Z,19.13
2023-05-16T11:59:18.005Z,18.95
2023-05-16T12:01:49.416Z,18.83
2023-05-16T12:04:20.910Z,18.67
2023-05-16T12:07:02.311Z,18.60
2023-05-16T12:12:13.721Z,18.43
2023-05-16T12:14:45.229Z,18.36
2023-05-16T12:17:15.862Z,18.27
2023-05-16T12:19:46.721Z,18.16
2023-05-16T12:22:20.929Z,18.07
2023-05-16T12:24:51.485Z,18.01
2023-05-16T12:27:26.456Z,17.98
2023-05-16T12:29:59.121Z,17.98
2023-05-16T12:32:29.738Z,17.97
2023-05-16T12:35:02.679Z,17.92
2023-05-16T12:37:33.028Z,17.88
2023-05-16T12:40:04.485Z,17.90
2023-05-16T12:42:35.535Z,17.89
2023-05-16T12:45:06.653Z,17.85
2023-05-16T12:47:40.602Z,17.78
2023-05-16T12:50:14.549Z,17.73
2023-05-16T12:52:53.186Z,17.65
2023-05-16T12:55:24.722Z,17.59
2023-05-16T12:57:57.002Z,17.50
2023-05-16T13:00:27.672Z,17.42
2023-05-16T13:02:58.561Z,17.33
2023-05-16T13:05:28.958Z,17.23
2023-05-16T13:07:59.393Z,17.07
2023-05-16T13:10:30.430Z,16.98
2023-05-16T13:13:01.128Z,16.89
2023-05-16T13:15:31.652Z,16.79
2023-05-16T13:18:02.332Z,16.64
2023-05-16T13:20:32.879Z,16.51
2023-05-16T13:23:04.211Z,16.38
2023-05-16T13:25:35.655Z,16.31
2023-05-16T13:28:06.479Z,16.22
2023-05-16T13:30:37.247Z,16.20
2023-05-16T13:33:07.774Z,16.20
2023-05-16T13:35:38.613Z,16.13
2023-05-16T13:38:08.984Z,16.06
2023-05-16T13:40:39.364Z,15.98
2023-05-16T13:43:09.897Z,15.94
2023-05-16T13:45:40.429Z,15.92
2023-05-16T13:48:11.670Z,15.93
2023-05-16T13:50:44.322Z,15.87
2023-05-16T13:53:14.989Z,15.80
2023-05-16T13:55:45.420Z,15.72
2023-05-16T13:58:16.086Z,15.62
2023-05-16T14:00:47.839Z,15.51
2023-05-16T14:03:18.677Z,15.45
2023-05-16T14:05:49.773Z,15.39
2023-05-16T14:08:20.144Z,15.34
2023-05-16T14:10:50.504Z,15.27
2023-05-16T14:13:21.232Z,15.23
2023-05-16T14:15:51.621Z,15.18
2023-05-16T14:18:22.052Z,15.14
2023-05-16T14:20:54.529Z,15.08
2023-05-16T14:23:24.976Z,15.04
2023-05-16T14:25:56.077Z,14.93
2023-05-16T14:28:26.525Z,14.85
2023-05-16T14:30:57.089Z,14.79
2023-05-16T14:33:27.476Z,14.73
2023-05-16T14:35:57.867Z,14.69
2023-05-16T14:38:28.764Z,14.65
2023-05-16T14:40:59.193Z,14.59
2023-05-16T14:43:29.606Z,14.51
2023-05-16T14:46:00.030Z,14.42
2023-05-16T14:48:31.384Z,14.37
2023-05-16T14:51:01.867Z,14.32
2023-05-16T14:53:32.593Z,14.30
2023-05-16T14:56:03.959Z,14.31
2023-05-16T14:58:34.370Z,14.34
2023-05-16T15:01:05.719Z,14.34
2023-05-16T15:03:50.705Z,14.34
2023-05-16T15:06:24.864Z,14.39
2023-05-16T15:08:56.026Z,14.43
2023-05-16T15:11:26.321Z,14.44
2023-05-16T15:13:57.344Z,14.44
2023-05-16T15:16:27.834Z,14.44
2023-05-16T15:18:58.656Z,14.39
2023-05-16T15:21:29.148Z,14.36
2023-05-16T15:23:59.768Z,14.33
2023-05-16T15:26:30.476Z,14.25
2023-05-16T15:29:00.946Z,14.19
2023-05-16T15:31:32.254Z,14.14
2023-05-16T15:34:02.790Z,14.08
2023-05-16T15:36:33.214Z,14.01
2023-05-16T15:39:04.058Z,13.95
2023-05-16T15:41:56.994Z,13.88
2023-05-16T15:44:25.156Z,13.80
2023-05-16T15:46:55.558Z,13.75
2023-05-16T15:49:25.989Z,13.70
2023-05-16T15:51:56.459Z,13.62
2023-05-16T15:54:26.927Z,13.55
2023-05-16T15:56:57.680Z,13.50
2023-05-16T15:59:28.532Z,13.49
2023-05-16T16:01:58.918Z,13.46
2023-05-16T16:04:29.274Z,13.45
2023-05-16T16:06:59.628Z,13.45
2023-05-16T16:09:30.035Z,13.41
2023-05-16T16:12:00.509Z,13.36
2023-05-16T16:14:31.308Z,13.34
2023-05-16T16:17:01.631Z,13.31
2023-05-16T16:19:32.541Z,13.29
2023-05-16T16:22:02.904Z,13.29
2023-05-16T16:24:33.306Z,13.27
2023-05-16T16:27:03.721Z,13.27
2023-05-16T16:29:34.041Z,13.26
2023-05-16T16:32:04.437Z,13.23
2023-05-16T16:34:34.848Z,13.21
2023-05-16T16:37:05.669Z,13.19
2023-05-16T16:39:36.407Z,13.14
2023-05-16T16:42:07.717Z,13.09
2023-05-16T16:44:38.109Z,13.07
2023-05-16T16:47:08.918Z,13.03
2023-05-16T16:49:39.507Z,13.00
2023-05-16T16:52:10.175Z,12.95
2023-05-16T16:54:40.702Z,12.90
2023-05-16T16:57:11.429Z,12.85
2023-05-16T16:59:41.790Z,12.81
2023-05-16T17:02:12.177Z,12.76
2023-05-16T17:04:42.783Z,12.74
2023-05-16T17:07:13.209Z,12.72
2023-05-16T17:09:43.953Z,12.69
2023-05-16T17:12:18.993Z,12.68
2023-05-16T17:14:51.325Z,12.67
2023-05-16T17:17:21.845Z,12.64
2023-05-16T17:19:52.917Z,12.63
2023-05-16T17:22:23.290Z,12.58
2023-05-16T17:24:53.824Z,12.54
2023-05-16T17:27:24.225Z,12.51
2023-05-16T17:29:54.555Z,12.48
2023-05-16T17:32:24.937Z,12.44
2023-05-16T17:34:55.335Z,12.41
2023-05-16T17:37:26.554Z,12.39
2023-05-16T17:39:57.594Z,12.36
2023-05-16T17:42:28.025Z,12.32
2023-05-16T17:45:01.520Z,12.27
2023-05-16T17:47:31.985Z,12.23
2023-05-16T17:50:02.516Z,12.19
2023-05-16T17:52:33.037Z,12.16
2023-05-16T17:55:03.912Z,12.13
2023-05-16T17:57:34.728Z,12.11
2023-05-16T18:00:07.228Z,12.06
2023-05-16T18:02:38.757Z,12.03
2023-05-16T18:05:10.555Z,12.00
2023-05-16T18:07:41.093Z,11.96
2023-05-16T18:10:13.625Z,11.92
2023-05-16T18:12:44.377Z,11.89
2023-05-16T18:15:14.835Z,11.86
2023-05-16T18:17:45.369Z,11.85
2023-05-16T18:20:16.171Z,11.81
2023-05-16T18:22:48.027Z,11.79
2023-05-16T18:25:18.485Z,11.76
2023-05-16T18:27:48.911Z,11.73
2023-05-16T18:30:19.722Z,11.69
2023-05-16T18:32:50.165Z,11.67
2023-05-16T18:35:20.623Z,11.66
2023-05-16T18:37:51.297Z,11.65
2023-05-16T18:40:22.152Z,11.63
2023-05-16T18:42:52.872Z,11.60
2023-05-16T18:45:23.924Z,11.58
2023-05-16T18:47:54.426Z,11.57
2023-05-16T18:50:24.908Z,11.54
2023-05-16T18:52:57.624Z,11.53
2023-05-16T18:55:28.601Z,11.52
2023-05-16T18:57:59.358Z,11.51
2023-05-16T19:00:29.798Z,11.48
2023-05-16T19:03:00.302Z,11.47
2023-05-16T19:05:31.140Z,11.44
2023-05-16T19:08:02.134Z,11.43
2023-05-16T19:10:37.872Z,11.41
2023-05-16T19:13:09.008Z,11.41
2023-05-16T19:15:40.009Z,11.40
2023-05-16T19:18:11.013Z,11.37
2023-05-16T19:20:43.767Z,11.36
2023-05-16T19:23:16.400Z,11.34
2023-05-16T19:25:48.998Z,11.32
2023-05-16T19:28:19.442Z,11.30
2023-05-16T19:30:49.886Z,11.29
2023-05-16T19:33:21.393Z,11.26
2023-05-16T19:35:53.656Z,11.25
2023-05-16T19:38:25.113Z,11.24
2023-05-16T19:40:55.652Z,11.21
2023-05-16T19:43:26.220Z,11.19
2023-05-16T19:45:56.707Z,11.16
2023-05-16T19:48:28.157Z,11.15
2023-05-16T19:50:58.677Z,11.13
2023-05-16T19:53:29.120Z,11.10
2023-05-16T19:55:59.570Z,11.08
2023-05-16T19:58:29.983Z,11.05
2023-05-16T20:01:00.410Z,11.02
2023-05-16T20:03:33.884Z,11.00
2023-05-16T20:06:04.861Z,10.98
2023-05-16T20:08:35.290Z,10.96
2023-05-16T20:11:06.168Z,10.94
2023-05-16T20:13:36.546Z,10.92
2023-05-16T20:16:08.222Z,10.91
2023-05-16T20:18:38.728Z,10.90
2023-05-16T20:21:09.347Z,10.90
2023-05-16T20:23:41.111Z,10.88
2023-05-16T20:26:14.863Z,10.86
2023-05-16T20:28:45.344Z,10.83
2023-05-16T20:31:15.804Z,10.83
2023-05-16T20:33:46.960Z,10.82
2023-05-16T20:36:17.409Z,10.82
2023-05-16T20:38:47.812Z,10.80
2023-05-16T20:41:18.220Z,10.76
2023-05-16T20:43:50.627Z,10.73
2023-05-16T20:46:21.447Z,10.69
2023-05-16T20:48:52.064Z,10.66
2023-05-16T20:51:22.519Z,10.62
2023-05-16T20:53:52.871Z,10.58
2023-05-16T20:56:23.389Z,10.57
2023-05-16T20:58:53.689Z,10.53
2023-05-16T21:01:24.057Z,10.53
2023-05-16T21:03:54.566Z,10.51
2023-05-16T21:06:24.937Z,10.52
2023-05-16T21:08:55.341Z,10.53
2023-05-16T21:11:28.690Z,10.52
2023-05-16T21:13:59.057Z,10.50
2023-05-16T21:16:31.225Z,10.49
2023-05-16T21:19:04.372Z,10.49
2023-05-16T21:21:35.137Z,10.47
2023-05-16T21:24:05.797Z,10.46
2023-05-16T21:26:36.281Z,10.45
2023-05-16T21:29:06.630Z,10.44
2023-05-16T21:31:37.013Z,10.42
2023-05-16T21:34:09.641Z,10.41
2023-05-16T21:36:40.163Z,10.39
2023-05-16T21:39:10.790Z,10.38
2023-05-16T21:41:41.308Z,10.36
2023-05-16T21:44:13.487Z,10.34
2023-05-16T21:46:43.860Z,10.33
2023-05-16T21:49:14.258Z,10.31
2023-05-16T21:51:45.217Z,10.29
2023-05-16T21:54:15.802Z,10.28
2023-05-16T21:56:46.231Z,10.27
2023-05-16T21:59:16.655Z,10.25
2023-05-16T22:01:47.180Z,10.25
2023-05-16T22:04:17.638Z,10.23
2023-05-16T22:06:48.165Z,10.21
2023-05-16T22:09:18.509Z,10.20
2023-05-16T22:11:49.121Z,10.20
2023-05-16T22:14:19.552Z,10.19
2023-05-16T22:16:49.926Z,10.21
2023-05-16T22:19:20.346Z,10.20
2023-05-16T22:21:50.829Z,10.20
2023-05-16T22:24:21.681Z,10.19
2023-05-16T22:26:52.192Z,10.18
2023-05-16T22:29:22.646Z,10.17
2023-05-16T22:31:53.338Z,10.16
2023-05-16T22:34:23.885Z,10.16
2023-05-16T22:36:54.307Z,10.16
2023-05-16T22:39:24.610Z,10.15
2023-05-16T22:41:55.004Z,10.15
2023-05-16T22:44:25.355Z,10.16
2023-05-16T22:46:55.823Z,10.16
2023-05-16T22:49:26.241Z,10.17
2023-05-16T22:51:56.624Z,10.18
2023-05-16T22:54:27.094Z,10.18
2023-05-16T22:56:57.440Z,10.19
2023-05-16T22:59:27.860Z,10.19
2023-05-16T23:01:58.206Z,10.20
2023-05-16T23:04:28.638Z,10.19
2023-05-16T23:06:59.223Z,10.19
2023-05-16T23:09:29.575Z,10.19
2023-05-16T23:12:00.244Z,10.18
2023-05-16T23:14:30.713Z,10.17
2023-05-16T23:17:01.082Z,10.16
2023-05-16T23:19:31.601Z,10.13
2023-05-16T23:22:03.558Z,10.14
2023-05-16T23:24:33.946Z,10.13
2023-05-16T23:27:04.534Z,10.11
2023-05-16T23:29:35.026Z,10.10
2023-05-16T23:32:05.902Z,10.10
2023-05-16T23:34:36.291Z,10.08
2023-05-16T23:37:06.821Z,10.08
2023-05-16T23:39:37.322Z,10.05
2023-05-16T23:42:08.452Z,10.04
2023-05-16T23:44:39.738Z,10.03
2023-05-16T23:47:10.170Z,10.02
2023-05-16T23:49:40.644Z,10.00
2023-05-16T23:52:11.034Z,9.97
2023-05-16T23:54:41.521Z,9.96
2023-05-16T23:57:11.935Z,9.94
2023-05-16T23:59:42.297Z,9.92
